Time;durP1;ratioP1;P1;durP2;ratioP2;P2;SDS_P1;SDS_P2;PMS_P1;PMS_P2;Temp;Humidity;BMP_temperature;BMP_pressure;BME280_temperature;BME280_humidity;BME280_pressure;Samples;Min_cycle;Max_cycle;Signal;HPM_P1;HPM_P2
2021/07/23 00:00:10;;;;;;;11.80;7.45;;;;;;;;;;5011906;28;20257;-69
2021/07/23 00:02:35;;;;;;;10.38;7.53;;;;;;;;;;5031626;28;20189;-69
2021/07/23 00:05:01;;;;;;;8.27;7.05;;;;;;;;;;5014163;28;20336;-69
2021/07/23 00:07:26;;;;;;;10.80;7.38;;;;;;;;;;5029744;28;20181;-69
2021/07/23 00:09:51;;;;;;;12.13;7.68;;;;;;;;;;5008622;28;20175;-69
2021/07/23 00:12:17;;;;;;;13.50;7.63;;;;;;;;;;5028476;28;20215;-69
2021/07/23 00:14:42;;;;;;;11.27;7.60;;;;;;;;;;5021529;28;20232;-69
2021/07/23 00:17:07;;;;;;;11.80;7.72;;;;;;;;;;5021951;28;20194;-69
2021/07/23 00:19:33;;;;;;;9.98;7.57;;;;;;;;;;5021114;28;20193;-69
2021/07/23 00:21:58;;;;;;;10.38;7.20;;;;;;;;;;5015070;28;20233;-69
2021/07/23 00:24:24;;;;;;;9.07;7.80;;;;;;;;;;5020606;28;20566;-69
2021/07/23 00:26:51;;;;;;;10.07;7.38;;;;;;;;;;5018839;28;20190;-69
2021/07/23 00:29:16;;;;;;;9.55;7.38;;;;;;;;;;5018647;28;20190;-69
2021/07/23 00:31:41;;;;;;;9.80;8.13;;;;;;;;;;5014033;28;20193;-69
2021/07/23 00:34:06;;;;;;;10.77;8.38;;;;;;;;;;5021581;28;20187;-69
2021/07/23 00:36:32;;;;;;;11.10;8.10;;;;;;;;;;5014705;28;20190;-69
2021/07/23 00:38:57;;;;;;;11.20;7.78;;;;;;;;;;5018399;28;20221;-69
2021/07/23 00:41:22;;;;;;;10.32;7.30;;;;;;;;;;5010760;28;20178;-69
2021/07/23 00:43:48;;;;;;;11.80;7.93;;;;;;;;;;5018460;28;20626;-69
2021/07/23 00:46:13;;;;;;;11.13;7.88;;;;;;;;;;5020619;28;20620;-69
2021/07/23 00:48:39;;;;;;;9.10;7.40;;;;;;;;;;5013891;28;20666;-69
2021/07/23 00:51:06;;;;;;;10.45;7.82;;;;;;;;;;5025129;28;20208;-69
2021/07/23 00:53:31;;;;;;;11.98;7.55;;;;;;;;;;5012899;28;20214;-69
2021/07/23 00:55:58;;;;;;;10.70;7.65;;;;;;;;;;5027669;28;20193;-69
2021/07/23 00:58:25;;;;;;;11.18;8.23;;;;;;;;;;5013790;28;20649;-69
2021/07/23 01:00:53;;;;;;;11.57;7.60;;;;;;;;;;5026185;28;20295;-69
2021/07/23 01:03:20;;;;;;;10.20;7.75;;;;;;;;;;5011300;28;20190;-69
2021/07/23 01:05:50;;;;;;;10.45;7.50;;;;;;;;;;5026834;28;20189;-69
2021/07/23 01:08:15;;;;;;;11.65;7.57;;;;;;;;;;5011292;28;20293;-69
2021/07/23 01:10:40;;;;;;;13.60;8.80;;;;;;;;;;5023670;28;20327;-69
2021/07/23 01:13:06;;;;;;;13.32;8.32;;;;;;;;;;5010443;28;20277;-69
2021/07/23 01:15:31;;;;;;;12.45;7.93;;;;;;;;;;5023587;28;20272;-69
2021/07/23 01:17:57;;;;;;;11.68;7.80;;;;;;;;;;5021907;28;20232;-69
2021/07/23 01:20:25;;;;;;;12.05;8.05;;;;;;;;;;5013304;28;20323;-69
2021/07/23 01:22:57;;;;;;;13.35;8.77;;;;;;;;;;5018404;28;20280;-69
2021/07/23 01:25:22;;;;;;;11.75;8.40;;;;;;;;;;5010768;28;20221;-69
2021/07/23 01:27:52;;;;;;;15.32;8.60;;;;;;;;;;5019063;28;20194;-69
2021/07/23 01:30:20;;;;;;;12.40;8.63;;;;;;;;;;5008690;28;20190;-69
2021/07/23 01:32:46;;;;;;;12.13;9.05;;;;;;;;;;5021306;28;20895;-69
2021/07/23 01:35:12;;;;;;;13.55;8.90;;;;;;;;;;5010626;28;20276;-69
2021/07/23 01:37:39;;;;;;;12.43;8.13;;;;;;;;;;5019331;28;20622;-69
2021/07/23 01:40:05;;;;;;;11.68;8.52;;;;;;;;;;5018223;28;20194;-69
2021/07/23 01:42:33;;;;;;;13.20;9.68;;;;;;;;;;5023852;28;20198;-69
2021/07/23 01:44:58;;;;;;;11.77;8.90;;;;;;;;;;5012657;28;20224;-69
2021/07/23 01:47:23;;;;;;;12.60;9.13;;;;;;;;;;5022105;28;20174;-69
2021/07/23 01:49:49;;;;;;;12.88;8.55;;;;;;;;;;5021176;28;20219;-69
2021/07/23 01:52:14;;;;;;;14.07;10.07;;;;;;;;;;5009084;28;20602;-69
2021/07/23 01:54:39;;;;;;;15.60;10.10;;;;;;;;;;5026845;28;20226;-69
2021/07/23 01:57:05;;;;;;;15.18;9.77;;;;;;;;;;5011899;28;20246;-69
2021/07/23 01:59:31;;;;;;;14.07;9.45;;;;;;;;;;5014251;28;20279;-69
2021/07/23 02:01:56;;;;;;;14.27;10.50;;;;;;;;;;5013111;28;20264;-69
2021/07/23 02:04:22;;;;;;;15.45;9.90;;;;;;;;;;5024172;28;20662;-69
2021/07/23 02:06:48;;;;;;;14.25;10.23;;;;;;;;;;5016739;28;20272;-69
2021/07/23 02:09:13;;;;;;;12.23;9.68;;;;;;;;;;5015074;28;20277;-69
2021/07/23 02:11:38;;;;;;;15.85;10.52;;;;;;;;;;5016802;28;20186;-69
2021/07/23 02:14:07;;;;;;;16.00;10.15;;;;;;;;;;5021773;28;20617;-69
2021/07/23 02:16:32;;;;;;;14.07;10.50;;;;;;;;;;5018993;28;25135;-69
2021/07/23 02:18:58;;;;;;;16.27;10.13;;;;;;;;;;5024149;28;20773;-69
2021/07/23 02:21:23;;;;;;;13.45;10.30;;;;;;;;;;5043868;28;20181;-70
2021/07/23 02:23:48;;;;;;;14.10;10.43;;;;;;;;;;5016175;28;20289;-70
2021/07/23 02:26:20;;;;;;;16.58;10.05;;;;;;;;;;5025654;28;20247;-69
2021/07/23 02:28:47;;;;;;;13.13;10.18;;;;;;;;;;5018230;28;20745;-69
2021/07/23 02:31:13;;;;;;;14.32;11.15;;;;;;;;;;5024607;28;20261;-69
2021/07/23 02:33:39;;;;;;;15.68;10.25;;;;;;;;;;5018730;28;20265;-70
2021/07/23 02:36:05;;;;;;;16.48;10.20;;;;;;;;;;5027792;28;20190;-70
2021/07/23 02:38:31;;;;;;;15.52;10.30;;;;;;;;;;5010574;28;20186;-69
2021/07/23 02:40:56;;;;;;;14.82;10.32;;;;;;;;;;5030128;28;20188;-69
2021/07/23 02:43:22;;;;;;;18.00;10.82;;;;;;;;;;5018786;28;20194;-69
2021/07/23 02:45:48;;;;;;;17.48;11.10;;;;;;;;;;5024135;28;20199;-70
2021/07/23 02:48:13;;;;;;;13.88;10.73;;;;;;;;;;5016292;28;20194;-70
2021/07/23 02:50:39;;;;;;;14.75;10.23;;;;;;;;;;5024945;28;20638;-69
2021/07/23 02:53:04;;;;;;;13.65;10.27;;;;;;;;;;5026889;28;20231;-70
2021/07/23 02:55:30;;;;;;;18.10;10.27;;;;;;;;;;5014670;28;20186;-69
2021/07/23 02:57:55;;;;;;;14.73;10.07;;;;;;;;;;5025662;28;20186;-69
2021/07/23 03:00:22;;;;;;;15.35;10.80;;;;;;;;;;5014489;28;20221;-69
2021/07/23 03:02:48;;;;;;;15.98;10.88;;;;;;;;;;5021263;28;20642;-69
2021/07/23 03:05:13;;;;;;;14.15;10.13;;;;;;;;;;5016291;28;20206;-69
2021/07/23 03:07:38;;;;;;;17.40;10.52;;;;;;;;;;5024022;28;20198;-70
2021/07/23 03:10:04;;;;;;;14.77;11.45;;;;;;;;;;5016436;28;20826;-69
2021/07/23 03:12:29;;;;;;;15.00;10.85;;;;;;;;;;5023369;28;20200;-69
2021/07/23 03:14:55;;;;;;;13.93;10.13;;;;;;;;;;5015824;28;20174;-70
2021/07/23 03:17:20;;;;;;;15.23;10.30;;;;;;;;;;5016227;28;20329;-70
2021/07/23 03:19:45;;;;;;;14.85;10.52;;;;;;;;;;5013693;28;20174;-70
2021/07/23 03:22:11;;;;;;;16.05;11.55;;;;;;;;;;5023292;28;20641;-70
2021/07/23 03:24:36;;;;;;;14.18;10.55;;;;;;;;;;5017606;28;20199;-70
2021/07/23 03:27:02;;;;;;;12.85;10.32;;;;;;;;;;5029412;28;20194;-69
2021/07/23 03:29:27;;;;;;;13.68;9.77;;;;;;;;;;5027916;28;20482;-69
2021/07/23 03:31:52;;;;;;;15.50;10.40;;;;;;;;;;5017988;28;20182;-69
2021/07/23 03:34:17;;;;;;;15.80;11.70;;;;;;;;;;5023657;28;20261;-69
2021/07/23 03:36:43;;;;;;;18.67;11.40;;;;;;;;;;5015935;28;20178;-69
2021/07/23 03:39:08;;;;;;;13.93;10.70;;;;;;;;;;5025234;28;20183;-69
2021/07/23 03:41:33;;;;;;;15.82;11.57;;;;;;;;;;5010628;28;20183;-69
2021/07/23 03:43:59;;;;;;;15.90;11.15;;;;;;;;;;5033546;28;20209;-70
2021/07/23 03:46:24;;;;;;;16.10;11.00;;;;;;;;;;5016995;28;20373;-69
2021/07/23 03:48:53;;;;;;;15.52;11.32;;;;;;;;;;5025240;28;20194;-70
2021/07/23 03:51:18;;;;;;;15.65;11.35;;;;;;;;;;5014593;28;20227;-69
2021/07/23 03:53:43;;;;;;;17.52;12.13;;;;;;;;;;5025854;28;20233;-69
2021/07/23 03:56:10;;;;;;;15.65;11.35;;;;;;;;;;5024648;28;20542;-70
2021/07/23 03:58:36;;;;;;;13.75;10.50;;;;;;;;;;5018509;28;20263;-70
2021/07/23 04:01:05;;;;;;;15.70;10.77;;;;;;;;;;5016602;28;20225;-70
2021/07/23 04:03:31;;;;;;;15.82;11.05;;;;;;;;;;5013711;28;20186;-70
2021/07/23 04:05:56;;;;;;;16.38;10.75;;;;;;;;;;5023031;28;20190;-70
2021/07/23 04:08:22;;;;;;;16.10;11.13;;;;;;;;;;5011080;28;20190;-70
2021/07/23 04:10:47;;;;;;;17.55;11.63;;;;;;;;;;5026099;28;20269;-70
2021/07/23 04:13:12;;;;;;;16.08;11.65;;;;;;;;;;5016991;28;20193;-69
2021/07/23 04:15:37;;;;;;;14.75;10.77;;;;;;;;;;5020390;28;20187;-69
2021/07/23 04:18:03;;;;;;;14.90;10.88;;;;;;;;;;5016931;28;20190;-70
2021/07/23 04:20:30;;;;;;;15.57;11.15;;;;;;;;;;5018947;28;20532;-70
2021/07/23 04:22:55;;;;;;;17.63;11.63;;;;;;;;;;5020252;28;20552;-70
2021/07/23 04:25:21;;;;;;;15.02;10.93;;;;;;;;;;5019302;28;20210;-70
2021/07/23 04:27:46;;;;;;;15.65;11.55;;;;;;;;;;5030255;28;20178;-70
2021/07/23 04:30:12;;;;;;;18.17;12.20;;;;;;;;;;5011591;28;20201;-70
2021/07/23 04:32:38;;;;;;;17.90;11.35;;;;;;;;;;5022304;28;20187;-70
2021/07/23 04:35:03;;;;;;;20.33;11.57;;;;;;;;;;5013399;28;20241;-70
2021/07/23 04:37:29;;;;;;;16.10;12.23;;;;;;;;;;5026770;28;20227;-70
2021/07/23 04:39:54;;;;;;;18.27;12.30;;;;;;;;;;5011298;28;20692;-70
2021/07/23 04:42:19;;;;;;;18.58;12.88;;;;;;;;;;5025924;28;20186;-70
2021/07/23 04:44:45;;;;;;;17.25;11.30;;;;;;;;;;5014379;28;20240;-70
2021/07/23 04:47:10;;;;;;;17.17;12.05;;;;;;;;;;5022146;28;20196;-70
2021/07/23 04:49:36;;;;;;;18.00;12.02;;;;;;;;;;5013759;28;20284;-70
2021/07/23 04:52:02;;;;;;;17.13;12.88;;;;;;;;;;5023559;28;20213;-70
2021/07/23 04:54:27;;;;;;;18.90;12.77;;;;;;;;;;5016826;28;20739;-70
2021/07/23 04:56:54;;;;;;;20.75;13.40;;;;;;;;;;5021195;28;20232;-70
2021/07/23 04:59:19;;;;;;;17.30;11.93;;;;;;;;;;5017387;28;20309;-70
2021/07/23 05:01:44;;;;;;;20.17;12.77;;;;;;;;;;5012183;28;20609;-70
2021/07/23 05:04:11;;;;;;;17.60;12.73;;;;;;;;;;5015177;28;20327;-70
2021/07/23 05:06:38;;;;;;;19.02;12.70;;;;;;;;;;5016699;28;20229;-70
2021/07/23 05:09:05;;;;;;;19.77;12.70;;;;;;;;;;5021904;28;20194;-70
2021/07/23 05:11:30;;;;;;;17.33;11.95;;;;;;;;;;5018784;28;20193;-70
2021/07/23 05:13:56;;;;;;;15.63;11.88;;;;;;;;;;5011447;28;20642;-70
2021/07/23 05:16:21;;;;;;;17.67;11.98;;;;;;;;;;5015948;28;20198;-70
2021/07/23 05:18:47;;;;;;;16.95;12.63;;;;;;;;;;5023172;28;20183;-70
2021/07/23 05:21:12;;;;;;;20.50;13.18;;;;;;;;;;5012915;28;20221;-70
2021/07/23 05:23:39;;;;;;;18.02;12.13;;;;;;;;;;5019973;28;20210;-70
2021/07/23 05:26:05;;;;;;;18.67;11.57;;;;;;;;;;5022055;28;20178;-70
2021/07/23 05:28:34;;;;;;;19.80;13.50;;;;;;;;;;5016387;28;21300;-70
2021/07/23 05:30:59;;;;;;;15.30;11.85;;;;;;;;;;5029493;28;20185;-70
2021/07/23 05:33:25;;;;;;;17.58;12.50;;;;;;;;;;5011333;28;20193;-70
2021/07/23 05:35:50;;;;;;;17.80;12.48;;;;;;;;;;5033055;28;20366;-70
2021/07/23 05:38:16;;;;;;;16.35;12.00;;;;;;;;;;5010651;28;20178;-70
2021/07/23 05:40:42;;;;;;;17.67;11.85;;;;;;;;;;5022314;28;20185;-70
2021/07/23 05:43:13;;;;;;;19.52;12.68;;;;;;;;;;5015184;28;20190;-70
2021/07/23 05:45:39;;;;;;;17.08;12.38;;;;;;;;;;5023677;28;20221;-70
2021/07/23 05:48:05;;;;;;;18.25;12.57;;;;;;;;;;5016602;28;20187;-70
2021/07/23 05:50:31;;;;;;;17.13;11.88;;;;;;;;;;5027068;28;20201;-70
2021/07/23 05:52:56;;;;;;;17.75;12.00;;;;;;;;;;5015730;28;20234;-69
2021/07/23 05:55:22;;;;;;;17.67;12.50;;;;;;;;;;5018740;28;20178;-69
2021/07/23 05:57:48;;;;;;;17.42;12.45;;;;;;;;;;5046655;28;20549;-70
2021/07/23 06:00:13;;;;;;;17.23;12.10;;;;;;;;;;5025443;28;20215;-69
2021/07/23 06:02:39;;;;;;;16.55;12.27;;;;;;;;;;5021803;28;20189;-69
2021/07/23 06:05:05;;;;;;;17.00;12.50;;;;;;;;;;5015448;28;20621;-70
2021/07/23 06:07:30;;;;;;;17.00;13.07;;;;;;;;;;5053853;28;20223;-70
2021/07/23 06:09:55;;;;;;;17.02;12.35;;;;;;;;;;5017229;28;21433;-70
2021/07/23 06:12:20;;;;;;;18.08;11.88;;;;;;;;;;5024004;28;20182;-70
2021/07/23 06:14:46;;;;;;;17.08;12.65;;;;;;;;;;5017614;28;20262;-70
2021/07/23 06:17:11;;;;;;;18.02;12.68;;;;;;;;;;5017016;28;20642;-70
2021/07/23 06:19:38;;;;;;;17.73;12.20;;;;;;;;;;5023754;28;20236;-70
2021/07/23 06:22:04;;;;;;;18.15;12.88;;;;;;;;;;5025492;28;20274;-70
2021/07/23 06:24:29;;;;;;;18.75;12.57;;;;;;;;;;5021951;28;20296;-70
2021/07/23 06:26:55;;;;;;;18.88;13.68;;;;;;;;;;5024908;28;20564;-70
2021/07/23 06:29:20;;;;;;;19.95;12.88;;;;;;;;;;5000714;28;20653;-70
2021/07/23 06:31:45;;;;;;;21.23;13.40;;;;;;;;;;5022768;28;20186;-70
2021/07/23 06:34:11;;;;;;;17.80;12.75;;;;;;;;;;5030517;28;20182;-70
2021/07/23 06:36:36;;;;;;;25.98;14.63;;;;;;;;;;5015062;28;20178;-70
2021/07/23 06:39:01;;;;;;;22.92;14.20;;;;;;;;;;5030246;28;20174;-70
2021/07/23 06:41:27;;;;;;;21.92;13.15;;;;;;;;;;5015788;28;20642;-70
2021/07/23 06:43:52;;;;;;;16.85;12.82;;;;;;;;;;5024015;28;20201;-70
2021/07/23 06:46:17;;;;;;;20.13;13.20;;;;;;;;;;5018596;28;20244;-70
2021/07/23 06:48:43;;;;;;;17.30;12.18;;;;;;;;;;5026975;28;20236;-70
2021/07/23 06:51:08;;;;;;;21.00;12.18;;;;;;;;;;5012348;28;20195;-69
2021/07/23 06:53:33;;;;;;;22.23;13.30;;;;;;;;;;5026577;28;20709;-70
2021/07/23 06:55:59;;;;;;;17.40;11.85;;;;;;;;;;5013322;28;20598;-70
2021/07/23 06:58:24;;;;;;;18.42;12.63;;;;;;;;;;5022524;28;20341;-69
2021/07/23 07:00:49;;;;;;;16.08;11.52;;;;;;;;;;5012366;28;20201;-70
2021/07/23 07:03:15;;;;;;;15.23;11.27;;;;;;;;;;5028865;28;20203;-70
2021/07/23 07:05:40;;;;;;;14.27;11.15;;;;;;;;;;5023121;28;20210;-69
2021/07/23 07:08:05;;;;;;;18.85;11.43;;;;;;;;;;5023475;28;20574;-70
2021/07/23 07:10:31;;;;;;;15.23;10.90;;;;;;;;;;5024408;28;20185;-70
2021/07/23 07:12:58;;;;;;;14.85;11.35;;;;;;;;;;5020190;28;20237;-69
2021/07/23 07:15:23;;;;;;;17.63;12.32;;;;;;;;;;5021648;28;20220;-70
2021/07/23 07:17:57;;;;;;;15.70;11.32;;;;;;;;;;5034615;28;20678;-70
2021/07/23 07:20:23;;;;;;;19.60;12.27;;;;;;;;;;5022002;28;20557;-70
2021/07/23 07:22:48;;;;;;;18.50;12.05;;;;;;;;;;5014481;28;20182;-69
2021/07/23 07:25:13;;;;;;;18.65;13.50;;;;;;;;;;5021381;28;20214;-70
2021/07/23 07:27:39;;;;;;;15.35;12.45;;;;;;;;;;5017997;28;20198;-70
2021/07/23 07:30:05;;;;;;;19.30;12.38;;;;;;;;;;5023305;28;20192;-70
2021/07/23 07:32:30;;;;;;;19.00;11.85;;;;;;;;;;5020459;28;20266;-70
2021/07/23 07:34:55;;;;;;;17.48;12.05;;;;;;;;;;5017940;28;20193;-69
2021/07/23 07:37:21;;;;;;;18.33;12.50;;;;;;;;;;5019929;28;20266;-70
2021/07/23 07:39:46;;;;;;;16.38;12.25;;;;;;;;;;5010897;28;20573;-70
2021/07/23 07:42:11;;;;;;;17.17;12.35;;;;;;;;;;5021367;28;20257;-69
2021/07/23 07:44:37;;;;;;;20.27;13.13;;;;;;;;;;5012668;28;20205;-70
2021/07/23 07:47:02;;;;;;;18.63;12.02;;;;;;;;;;5034119;28;20328;-70
2021/07/23 07:49:27;;;;;;;20.98;13.25;;;;;;;;;;5011528;28;20190;-70
2021/07/23 07:51:53;;;;;;;18.42;12.40;;;;;;;;;;5024578;28;20638;-70
2021/07/23 07:54:18;;;;;;;19.52;12.75;;;;;;;;;;5014030;28;20600;-69
2021/07/23 07:56:44;;;;;;;17.95;11.82;;;;;;;;;;5027814;28;20248;-70
2021/07/23 07:59:09;;;;;;;15.38;11.98;;;;;;;;;;5010195;28;20236;-70
2021/07/23 08:01:35;;;;;;;18.45;12.23;;;;;;;;;;5025651;28;20644;-70
2021/07/23 08:04:00;;;;;;;16.88;12.13;;;;;;;;;;5011196;28;20213;-70
2021/07/23 08:06:30;;;;;;;18.00;12.30;;;;;;;;;;5030201;28;20189;-70
2021/07/23 08:09:00;;;;;;;15.57;11.63;;;;;;;;;;5021777;28;20189;-70
2021/07/23 08:11:25;;;;;;;18.13;12.02;;;;;;;;;;5019596;28;20193;-70
2021/07/23 08:13:51;;;;;;;17.83;12.00;;;;;;;;;;5022931;28;20585;-70
2021/07/23 08:16:16;;;;;;;17.55;10.77;;;;;;;;;;5018236;28;20244;-70
2021/07/23 08:18:41;;;;;;;19.42;10.77;;;;;;;;;;5022018;28;20213;-70
2021/07/23 08:21:07;;;;;;;19.23;10.90;;;;;;;;;;5016611;28;20243;-70
2021/07/23 08:23:34;;;;;;;15.20;10.32;;;;;;;;;;5022197;28;20235;-70
2021/07/23 08:26:00;;;;;;;17.98;10.55;;;;;;;;;;5011498;28;20520;-67
2021/07/23 08:28:26;;;;;;;15.65;10.98;;;;;;;;;;5020654;28;20349;-71
2021/07/23 08:30:52;;;;;;;19.58;11.55;;;;;;;;;;5014998;28;20302;-70
2021/07/23 08:33:20;;;;;;;15.77;10.73;;;;;;;;;;5021967;28;20190;-71
2021/07/23 08:35:45;;;;;;;15.50;11.13;;;;;;;;;;5018636;28;20197;-69
2021/07/23 08:38:10;;;;;;;14.80;11.60;;;;;;;;;;5022826;28;20299;-69
2021/07/23 08:40:37;;;;;;;17.05;11.70;;;;;;;;;;5021605;28;20190;-69
2021/07/23 08:43:03;;;;;;;14.00;10.90;;;;;;;;;;5024048;28;20182;-69
2021/07/23 08:45:29;;;;;;;16.17;10.60;;;;;;;;;;5023897;28;20347;-69
2021/07/23 08:47:54;;;;;;;16.02;10.93;;;;;;;;;;5015077;28;21486;-69
2021/07/23 08:50:19;;;;;;;13.55;10.18;;;;;;;;;;5025052;28;20725;-69
2021/07/23 08:52:47;;;;;;;16.95;11.18;;;;;;;;;;5014847;28;20193;-68
2021/07/23 08:55:16;;;;;;;17.25;11.32;;;;;;;;;;5026735;28;20319;-68
2021/07/23 08:57:42;;;;;;;16.02;11.68;;;;;;;;;;5013564;28;20201;-69
2021/07/23 09:00:16;;;;;;;18.70;10.43;;;;;;;;;;5016640;28;20202;-68
2021/07/23 09:03:01;;;;;;;18.88;11.63;;;;;;;;;;5018785;28;20209;-69
2021/07/23 09:05:27;;;;;;;16.35;11.40;;;;;;;;;;5023729;28;20206;-69
2021/07/23 09:07:53;;;;;;;16.45;10.82;;;;;;;;;;5014870;28;20201;-69
2021/07/23 09:10:24;;;;;;;18.08;12.48;;;;;;;;;;5017633;28;20194;-73
2021/07/23 09:12:52;;;;;;;17.25;11.15;;;;;;;;;;5018270;28;20174;-69
2021/07/23 09:15:22;;;;;;;13.75;11.05;;;;;;;;;;5015633;28;20190;-69
2021/07/23 09:17:48;;;;;;;15.45;12.00;;;;;;;;;;5009697;28;20182;-70
2021/07/23 09:20:14;;;;;;;16.30;12.30;;;;;;;;;;5022542;28;20621;-69
2021/07/23 09:22:54;;;;;;;17.52;12.90;;;;;;;;;;5020316;28;20186;-69
2021/07/23 09:25:36;;;;;;;17.35;12.45;;;;;;;;;;5022175;28;20225;-69
2021/07/23 09:28:18;;;;;;;14.73;11.50;;;;;;;;;;5016759;28;20174;-68
2021/07/23 09:30:43;;;;;;;15.35;10.65;;;;;;;;;;5016096;28;20189;-69
2021/07/23 09:33:09;;;;;;;16.42;10.98;;;;;;;;;;5028883;28;20202;-69
2021/07/23 09:35:35;;;;;;;17.98;11.45;;;;;;;;;;5008231;28;20208;-68
2021/07/23 09:38:00;;;;;;;14.77;10.32;;;;;;;;;;5028116;28;20265;-69
2021/07/23 09:40:40;;;;;;;18.52;11.35;;;;;;;;;;5010185;28;20198;-69
2021/07/23 09:43:05;;;;;;;14.15;10.20;;;;;;;;;;5020116;28;20177;-69
2021/07/23 09:45:32;;;;;;;16.98;10.70;;;;;;;;;;5009282;28;20566;-68
2021/07/23 09:48:27;;;;;;;13.63;10.75;;;;;;;;;;5031847;28;20190;-69
2021/07/23 09:50:55;;;;;;;16.17;10.75;;;;;;;;;;5015882;28;20201;-69
2021/07/23 09:53:20;;;;;;;15.60;10.70;;;;;;;;;;5030467;28;20261;-68
2021/07/23 09:55:47;;;;;;;15.10;10.40;;;;;;;;;;5015408;28;20720;-68
2021/07/23 09:58:19;;;;;;;14.90;11.60;;;;;;;;;;5013582;28;20258;-68
2021/07/23 10:00:51;;;;;;;20.65;13.05;;;;;;;;;;5015481;28;20263;-68
2021/07/23 10:03:18;;;;;;;18.50;13.50;;;;;;;;;;5016457;28;20221;-68
2021/07/23 10:05:50;;;;;;;18.58;13.15;;;;;;;;;;5016274;28;20202;-68
2021/07/23 10:08:27;;;;;;;18.48;14.68;;;;;;;;;;5014950;28;20276;-69
2021/07/23 10:10:55;;;;;;;18.58;13.82;;;;;;;;;;5016982;28;20197;-68
2021/07/23 10:13:27;;;;;;;19.23;12.30;;;;;;;;;;5020163;28;20202;-68
2021/07/23 10:15:53;;;;;;;20.73;14.43;;;;;;;;;;5017091;28;20232;-68
2021/07/23 10:18:18;;;;;;;16.98;13.43;;;;;;;;;;5015174;28;20328;-68
2021/07/23 10:20:46;;;;;;;19.33;13.57;;;;;;;;;;5013811;28;20187;-67
2021/07/23 10:23:18;;;;;;;15.65;13.40;;;;;;;;;;5016367;28;20545;-68
2021/07/23 10:25:45;;;;;;;18.60;13.07;;;;;;;;;;5026324;28;20217;-67
2021/07/23 10:28:11;;;;;;;18.20;11.95;;;;;;;;;;5009089;28;20633;-67
2021/07/23 10:30:36;;;;;;;14.25;11.98;;;;;;;;;;5026998;28;20181;-68
2021/07/23 10:33:04;;;;;;;19.40;11.68;;;;;;;;;;5017075;28;20662;-68
2021/07/23 10:35:31;;;;;;;16.55;11.82;;;;;;;;;;5035321;28;20178;-68
2021/07/23 10:37:57;;;;;;;15.75;11.38;;;;;;;;;;5020559;28;20285;-68
2021/07/23 10:40:37;;;;;;;15.30;10.15;;;;;;;;;;5027051;28;20548;-68
2021/07/23 10:43:35;;;;;;;12.38;9.80;;;;;;;;;;5013064;28;20642;-68
2021/07/23 10:46:02;;;;;;;19.48;11.80;;;;;;;;;;5023808;28;20575;-68
2021/07/23 10:48:45;;;;;;;14.65;10.85;;;;;;;;;;5014462;28;20193;-68
2021/07/23 10:51:49;;;;;;;18.10;10.65;;;;;;;;;;5021604;28;20661;-68
2021/07/23 10:54:16;;;;;;;13.52;10.93;;;;;;;;;;5031899;28;20214;-68
2021/07/23 10:57:11;;;;;;;18.25;11.20;;;;;;;;;;5017914;28;20209;-68
2021/07/23 10:59:39;;;;;;;12.75;10.68;;;;;;;;;;5018344;28;20620;-68
2021/07/23 11:02:06;;;;;;;15.40;11.52;;;;;;;;;;5022406;28;20218;-69
2021/07/23 11:04:35;;;;;;;15.70;10.73;;;;;;;;;;5022278;28;20224;-68
2021/07/23 11:07:02;;;;;;;16.80;11.85;;;;;;;;;;5024655;28;20268;-68
2021/07/23 11:09:31;;;;;;;13.75;11.05;;;;;;;;;;5014343;28;20201;-68
2021/07/23 11:12:16;;;;;;;14.63;10.95;;;;;;;;;;5021729;28;20190;-69
2021/07/23 11:14:41;;;;;;;18.10;12.20;;;;;;;;;;5023047;28;20529;-68
2021/07/23 11:17:08;;;;;;;16.30;10.82;;;;;;;;;;5021918;28;20197;-69
2021/07/23 11:19:34;;;;;;;15.38;11.77;;;;;;;;;;5017892;28;20241;-69
2021/07/23 11:21:59;;;;;;;16.48;10.93;;;;;;;;;;5023475;28;20651;-68
2021/07/23 11:24:34;;;;;;;14.77;10.07;;;;;;;;;;5021373;28;20295;-69
2021/07/23 11:26:59;;;;;;;15.25;10.32;;;;;;;;;;5022255;28;20190;-69
2021/07/23 11:29:37;;;;;;;15.10;11.27;;;;;;;;;;5016589;28;20208;-69
2021/07/23 11:32:07;;;;;;;12.13;9.68;;;;;;;;;;5021945;28;20261;-68
2021/07/23 11:34:37;;;;;;;14.32;9.43;;;;;;;;;;5009608;28;20235;-68
2021/07/23 11:37:29;;;;;;;14.77;10.00;;;;;;;;;;5021522;28;20179;-68
2021/07/23 11:39:57;;;;;;;14.00;10.02;;;;;;;;;;5010731;28;20201;-70
2021/07/23 11:42:24;;;;;;;13.18;10.02;;;;;;;;;;5029051;28;20242;-69
2021/07/23 11:44:54;;;;;;;13.50;9.25;;;;;;;;;;5025068;28;20586;-69
2021/07/23 11:47:28;;;;;;;11.55;9.52;;;;;;;;;;5018547;28;20250;-68
2021/07/23 11:49:58;;;;;;;10.57;9.02;;;;;;;;;;5023865;28;20213;-69
2021/07/23 11:52:24;;;;;;;11.57;8.98;;;;;;;;;;5020874;28;20193;-69
2021/07/23 11:55:07;;;;;;;10.70;8.10;;;;;;;;;;5020666;28;20214;-68
2021/07/23 11:57:43;;;;;;;9.95;8.02;;;;;;;;;;5016482;28;20194;-69
2021/07/23 12:00:21;;;;;;;11.23;8.18;;;;;;;;;;5015899;28;20626;-68
2021/07/23 12:02:47;;;;;;;10.68;8.52;;;;;;;;;;5018979;28;20406;-68
2021/07/23 12:05:14;;;;;;;9.80;7.68;;;;;;;;;;5020091;28;20206;-68
2021/07/23 12:07:41;;;;;;;11.68;7.78;;;;;;;;;;5018604;28;20203;-69
2021/07/23 12:10:09;;;;;;;10.35;8.27;;;;;;;;;;5020776;28;20186;-68
2021/07/23 12:12:36;;;;;;;11.65;10.07;;;;;;;;;;5016491;28;20210;-68
2021/07/23 12:15:07;;;;;;;15.77;9.88;;;;;;;;;;5020058;28;20194;-69
2021/07/23 12:17:35;;;;;;;12.70;9.50;;;;;;;;;;5016960;28;20198;-71
2021/07/23 12:20:00;;;;;;;12.93;8.48;;;;;;;;;;5021403;28;20675;-70
2021/07/23 12:22:26;;;;;;;12.02;7.72;;;;;;;;;;5019898;28;20189;-68
2021/07/23 12:24:51;;;;;;;11.20;8.13;;;;;;;;;;5019705;28;20257;-68
2021/07/23 12:27:22;;;;;;;11.15;8.07;;;;;;;;;;5026269;28;20189;-69
2021/07/23 12:29:47;;;;;;;10.45;7.18;;;;;;;;;;5020209;28;20243;-69
2021/07/23 12:32:22;;;;;;;11.18;8.07;;;;;;;;;;5026051;28;20204;-68
2021/07/23 12:34:55;;;;;;;8.93;7.40;;;;;;;;;;5018336;28;20272;-68
2021/07/23 12:37:21;;;;;;;11.38;8.00;;;;;;;;;;5023175;28;20193;-69
2021/07/23 12:40:02;;;;;;;10.85;7.47;;;;;;;;;;5015911;28;20190;-68
2021/07/23 12:42:29;;;;;;;10.25;7.88;;;;;;;;;;5025611;28;20189;-69
2021/07/23 12:44:55;;;;;;;11.50;9.20;;;;;;;;;;5013909;28;20238;-67
2021/07/23 12:47:22;;;;;;;15.35;9.88;;;;;;;;;;5019635;28;20222;-69
2021/07/23 12:49:49;;;;;;;13.57;10.05;;;;;;;;;;5016009;28;20243;-68
2021/07/23 12:52:14;;;;;;;12.43;9.32;;;;;;;;;;5027210;28;20646;-68
2021/07/23 12:54:42;;;;;;;13.10;9.55;;;;;;;;;;5017115;28;20223;-68
2021/07/23 12:57:29;;;;;;;11.27;8.65;;;;;;;;;;5012866;28;20309;-68
2021/07/23 12:59:54;;;;;;;14.20;9.65;;;;;;;;;;5021098;28;20207;-68
2021/07/23 13:02:20;;;;;;;12.68;9.40;;;;;;;;;;5016896;28;20634;-68
2021/07/23 13:04:47;;;;;;;14.30;8.55;;;;;;;;;;5016639;28;20213;-68
2021/07/23 13:07:13;;;;;;;13.48;8.65;;;;;;;;;;5014084;28;20435;-68
2021/07/23 13:09:46;;;;;;;11.52;7.70;;;;;;;;;;5021695;28;20279;-69
2021/07/23 13:12:12;;;;;;;12.52;9.35;;;;;;;;;;5019807;28;20277;-68
2021/07/23 13:14:38;;;;;;;12.23;9.43;;;;;;;;;;5014497;28;20173;-69
2021/07/23 13:17:07;;;;;;;14.38;10.57;;;;;;;;;;5022435;28;20270;-69
2021/07/23 13:19:33;;;;;;;12.43;10.10;;;;;;;;;;5019615;28;20272;-69
2021/07/23 13:22:00;;;;;;;12.07;9.00;;;;;;;;;;5015248;28;20525;-69
2021/07/23 13:24:27;;;;;;;13.65;9.80;;;;;;;;;;5016977;28;20669;-68
2021/07/23 13:26:53;;;;;;;11.82;9.50;;;;;;;;;;5009494;28;20243;-69
2021/07/23 13:29:22;;;;;;;17.77;11.23;;;;;;;;;;5018569;28;20229;-69
2021/07/23 13:31:51;;;;;;;13.88;9.80;;;;;;;;;;5011402;28;20256;-67
2021/07/23 13:34:17;;;;;;;13.82;10.18;;;;;;;;;;5022183;28;20194;-69
2021/07/23 13:36:51;;;;;;;15.18;9.55;;;;;;;;;;5013332;28;20654;-69
2021/07/23 13:39:34;;;;;;;14.98;9.05;;;;;;;;;;5019832;28;20688;-69
2021/07/23 13:42:01;;;;;;;12.40;8.13;;;;;;;;;;5024517;28;20719;-68
2021/07/23 13:44:28;;;;;;;10.75;8.23;;;;;;;;;;5028627;28;20208;-68
2021/07/23 13:46:56;;;;;;;18.33;9.75;;;;;;;;;;5013794;28;20320;-68
2021/07/23 13:49:21;;;;;;;12.43;9.38;;;;;;;;;;5021285;28;20268;-69
2021/07/23 13:51:46;;;;;;;13.52;9.27;;;;;;;;;;5011499;28;20182;-68
2021/07/23 13:54:12;;;;;;;13.07;8.45;;;;;;;;;;5028067;28;20218;-69
2021/07/23 13:56:38;;;;;;;11.73;8.23;;;;;;;;;;5010388;28;20209;-69
2021/07/23 13:59:04;;;;;;;11.75;7.82;;;;;;;;;;5023271;28;20179;-71
2021/07/23 14:01:32;;;;;;;13.68;7.90;;;;;;;;;;5019035;28;20198;-69
2021/07/23 14:03:58;;;;;;;11.35;7.72;;;;;;;;;;5021200;28;20533;-68
2021/07/23 14:06:24;;;;;;;13.43;7.60;;;;;;;;;;5020913;28;20197;-68
2021/07/23 14:08:49;;;;;;;11.05;7.65;;;;;;;;;;5021514;28;20551;-69
2021/07/23 14:11:14;;;;;;;8.32;6.97;;;;;;;;;;5020225;28;20541;-68
2021/07/23 14:13:40;;;;;;;11.23;7.88;;;;;;;;;;5024008;28;20575;-68
2021/07/23 14:16:09;;;;;;;10.05;7.30;;;;;;;;;;5020277;28;20200;-68
2021/07/23 14:18:34;;;;;;;11.88;7.55;;;;;;;;;;5019702;28;20284;-69
2021/07/23 14:21:00;;;;;;;7.63;6.68;;;;;;;;;;5018665;28;20268;-69